Time;durP1;ratioP1;P1;durP2;ratioP2;P2;SDS_P1;SDS_P2;PMS_P1;PMS_P2;Temp;Humidity;BMP_temperature;BMP_pressure;BME280_temperature;BME280_humidity;BME280_pressure;Samples;Min_cycle;Max_cycle;Signal;HPM_P1;HPM_P2
2021/04/16 00:00:15;;;;;;;0.40;0.10;;;21.80;35.50;;;;;;5027497;28;20506;-78
2021/04/16 00:02:40;;;;;;;0.38;0.10;;;21.70;35.30;;;;;;5027043;28;20148;-78
2021/04/16 00:05:06;;;;;;;0.57;0.20;;;21.70;35.30;;;;;;5041038;28;20100;-81
2021/04/16 00:07:32;;;;;;;0.43;0.13;;;21.70;35.30;;;;;;5046872;28;20152;-78
2021/04/16 00:09:59;;;;;;;0.55;0.10;;;21.70;35.40;;;;;;5009532;28;20071;-79
2021/04/16 00:12:25;;;;;;;0.43;0.10;;;21.70;35.30;;;;;;5023519;28;20028;-78
2021/04/16 00:14:50;;;;;;;0.40;0.10;;;21.70;35.30;;;;;;5026458;28;20116;-78
2021/04/16 00:17:16;;;;;;;0.30;0.10;;;21.70;35.30;;;;;;5026448;28;20037;-81
2021/04/16 00:19:41;;;;;;;0.20;0.10;;;21.70;35.20;;;;;;5043245;28;20021;-78
2021/04/16 00:22:07;;;;;;;0.60;0.20;;;21.60;35.30;;;;;;5024459;28;20025;-79
2021/04/16 00:24:33;;;;;;;0.63;0.10;;;21.60;35.30;;;;;;5027489;28;20043;-79
2021/04/16 00:26:58;;;;;;;0.40;0.10;;;21.60;35.30;;;;;;5013682;28;20029;-79
2021/04/16 00:29:24;;;;;;;0.70;0.17;;;21.60;35.30;;;;;;5009042;28;20598;-79
2021/04/16 00:31:53;;;;;;;0.38;0.05;;;21.60;35.30;;;;;;5030462;28;20087;-79
2021/04/16 00:34:21;;;;;;;0.30;0.10;;;21.60;35.40;;;;;;5048850;28;20078;-79
2021/04/16 00:36:47;;;;;;;0.40;0.13;;;21.60;35.30;;;;;;5029847;28;20029;-78
2021/04/16 00:39:14;;;;;;;0.45;0.05;;;21.50;35.30;;;;;;5037903;28;20025;-78
2021/04/16 00:41:39;;;;;;;0.40;0.10;;;21.50;35.30;;;;;;5027421;28;20038;-81
2021/04/16 00:44:05;;;;;;;0.10;0.00;;;21.50;35.20;;;;;;5036253;28;20024;-78
2021/04/16 00:47:00;;;;;;;0.43;0.10;;;21.60;35.40;;;;;;5025448;28;20030;-78
2021/04/16 00:49:29;;;;;;;0.20;0.10;;;21.50;35.30;;;;;;5045328;28;20033;-78
2021/04/16 00:51:58;;;;;;;0.40;0.10;;;21.50;35.30;;;;;;5031639;28;20035;-78
2021/04/16 00:54:40;;;;;;;0.40;0.10;;;21.50;35.40;;;;;;5025825;28;20481;-78
2021/04/16 00:57:09;;;;;;;0.30;0.08;;;21.50;35.30;;;;;;5033247;28;20033;-78
2021/04/16 00:59:39;;;;;;;0.30;0.00;;;21.50;35.40;;;;;;5029355;28;20440;-78
2021/04/16 01:02:06;;;;;;;1.42;0.05;;;21.50;35.30;;;;;;5026021;28;20202;-81
2021/04/16 01:04:33;;;;;;;0.75;0.10;;;21.40;35.30;;;;;;5049223;28;20046;-81
2021/04/16 01:07:01;;;;;;;1.63;0.10;;;21.40;35.30;;;;;;5037753;28;20104;-79
2021/04/16 01:09:29;;;;;;;0.50;0.10;;;21.40;35.30;;;;;;5048828;28;20037;-80
2021/04/16 01:11:54;;;;;;;0.30;0.10;;;21.40;35.30;;;;;;5046868;28;20033;-78
2021/04/16 01:14:20;;;;;;;0.35;0.10;;;21.40;35.30;;;;;;5023371;28;20025;-78
2021/04/16 01:16:46;;;;;;;1.30;0.10;;;21.40;35.30;;;;;;5047265;28;20021;-80
2021/04/16 01:19:36;;;;;;;1.55;0.10;;;21.40;35.30;;;;;;5027080;28;20022;-78
2021/04/16 01:22:09;;;;;;;0.73;0.10;;;21.40;35.30;;;;;;5014600;28;20031;-80
2021/04/16 01:24:36;;;;;;;0.40;0.00;;;21.40;35.30;;;;;;5043843;28;20036;-77
2021/04/16 01:27:10;;;;;;;0.22;0.10;;;21.40;35.40;;;;;;5009722;28;20028;-79
2021/04/16 01:29:38;;;;;;;0.25;0.00;;;21.40;35.30;;;;;;5030428;28;20040;-78
2021/04/16 01:32:04;;;;;;;0.40;0.10;;;21.30;35.40;;;;;;5049691;28;20036;-77
2021/04/16 01:34:30;;;;;;;0.30;0.10;;;21.30;35.40;;;;;;5024409;28;20044;-78
2021/04/16 01:36:57;;;;;;;0.25;0.10;;;21.30;35.30;;;;;;5028085;28;20392;-78
2021/04/16 01:39:26;;;;;;;0.30;0.10;;;21.30;35.30;;;;;;5025719;28;20026;-79
2021/04/16 01:41:52;;;;;;;0.20;0.00;;;21.30;35.40;;;;;;5029515;28;20020;-78
2021/04/16 01:44:21;;;;;;;0.30;0.10;;;21.30;35.40;;;;;;5014116;28;20025;-78
2021/04/16 01:46:47;;;;;;;0.28;0.00;;;21.30;35.40;;;;;;5023470;28;20041;-77
2021/04/16 01:49:13;;;;;;;0.50;0.00;;;21.30;35.40;;;;;;5044022;28;20014;-78
2021/04/16 01:51:38;;;;;;;0.13;0.00;;;21.30;35.40;;;;;;5042072;28;20032;-78
2021/04/16 01:54:22;;;;;;;0.28;0.03;;;21.30;35.40;;;;;;5045875;28;20063;-78
2021/04/16 01:56:50;;;;;;;0.30;0.00;;;21.20;35.30;;;;;;5044399;28;20029;-79
2021/04/16 01:59:23;;;;;;;1.05;0.00;;;21.20;35.30;;;;;;5023292;28;20017;-78
2021/04/16 02:01:49;;;;;;;0.15;0.03;;;21.20;35.40;;;;;;5027474;28;20410;-79
2021/04/16 02:04:16;;;;;;;0.98;0.10;;;21.20;35.40;;;;;;5026149;28;20032;-79
2021/04/16 02:06:43;;;;;;;0.55;0.10;;;21.20;35.40;;;;;;5033505;28;20044;-79
2021/04/16 02:09:13;;;;;;;0.15;0.03;;;21.20;35.30;;;;;;5040625;28;20038;-78
2021/04/16 02:11:40;;;;;;;0.20;0.05;;;21.20;35.40;;;;;;5026099;28;20104;-78
2021/04/16 02:14:14;;;;;;;0.35;0.00;;;21.20;35.30;;;;;;5051045;28;20025;-79
2021/04/16 02:16:41;;;;;;;0.20;0.10;;;21.20;35.40;;;;;;5027299;28;20047;-78
2021/04/16 02:19:07;;;;;;;0.55;0.10;;;21.10;35.40;;;;;;5024509;28;20017;-78
2021/04/16 02:21:33;;;;;;;0.82;0.00;;;21.10;35.40;;;;;;5010198;28;20501;-78
2021/04/16 02:24:00;;;;;;;0.52;0.00;;;21.10;35.40;;;;;;5027052;28;20020;-78
2021/04/16 02:26:44;;;;;;;0.17;0.00;;;21.10;35.40;;;;;;5048639;28;20113;-78
2021/04/16 02:29:29;;;;;;;0.25;0.10;;;21.10;35.40;;;;;;5041704;28;20040;-78
2021/04/16 02:31:54;;;;;;;0.57;0.00;;;21.10;35.40;;;;;;5026273;28;551829;-80
2021/04/16 02:34:23;;;;;;;1.95;0.10;;;21.10;35.40;;;;;;5028478;28;20029;-78
2021/04/16 02:36:51;;;;;;;0.20;0.10;;;21.10;35.40;;;;;;5031807;28;20056;-78
2021/04/16 02:39:17;;;;;;;0.20;0.03;;;21.10;35.40;;;;;;5029811;28;20488;-78
2021/04/16 02:41:43;;;;;;;0.20;0.00;;;21.10;35.30;;;;;;5027044;28;20017;-78
2021/04/16 02:44:09;;;;;;;0.70;0.00;;;21.10;35.30;;;;;;5031969;28;20021;-79
2021/04/16 02:46:35;;;;;;;0.20;0.00;;;21.10;35.40;;;;;;5049350;28;20040;-78
2021/04/16 02:49:02;;;;;;;0.43;0.05;;;21.00;35.30;;;;;;5042750;28;20103;-78
2021/04/16 02:51:28;;;;;;;0.20;0.00;;;21.00;35.40;;;;;;5043343;28;20155;-81
2021/04/16 02:53:54;;;;;;;0.10;0.00;;;21.10;35.40;;;;;;5025053;28;20519;-78
2021/04/16 02:56:20;;;;;;;0.17;0.00;;;21.00;35.40;;;;;;5018275;28;20048;-78
2021/04/16 02:58:45;;;;;;;0.20;0.00;;;21.00;35.40;;;;;;5049141;28;20029;-79
2021/04/16 03:01:11;;;;;;;0.28;0.00;;;21.00;35.40;;;;;;5031671;28;20453;-79
2021/04/16 03:03:36;;;;;;;0.10;0.00;;;21.00;35.40;;;;;;5030216;28;20025;-79
2021/04/16 03:06:04;;;;;;;0.13;0.00;;;21.00;35.40;;;;;;5030148;28;20116;-79
2021/04/16 03:08:29;;;;;;;0.20;0.00;;;21.00;35.40;;;;;;5030249;28;20028;-79
2021/04/16 03:10:55;;;;;;;0.50;0.05;;;20.90;35.40;;;;;;5039968;28;20021;-80
2021/04/16 03:13:20;;;;;;;0.10;0.00;;;21.00;35.40;;;;;;5049267;28;20518;-78
2021/04/16 03:15:46;;;;;;;0.20;0.00;;;21.00;35.40;;;;;;5031835;28;20021;-77
2021/04/16 03:18:13;;;;;;;0.30;0.10;;;20.90;35.40;;;;;;5009967;28;20029;-78
2021/04/16 03:20:38;;;;;;;0.30;0.00;;;20.90;35.40;;;;;;5023991;28;20401;-78
2021/04/16 03:23:05;;;;;;;0.75;0.10;;;20.90;35.40;;;;;;5050273;28;20029;-79
2021/04/16 03:25:30;;;;;;;0.47;0.10;;;20.90;35.40;;;;;;5025105;28;20025;-78
2021/04/16 03:27:56;;;;;;;0.20;0.00;;;20.90;35.40;;;;;;5032743;28;20025;-79
2021/04/16 03:30:23;;;;;;;0.57;0.00;;;21.00;35.40;;;;;;5025894;28;20027;-79
2021/04/16 03:32:49;;;;;;;0.73;0.10;;;20.90;35.40;;;;;;5024544;28;20056;-78
2021/04/16 03:35:16;;;;;;;0.20;0.00;;;20.90;35.40;;;;;;5015505;28;20035;-78
2021/04/16 03:37:42;;;;;;;0.20;0.00;;;20.90;35.40;;;;;;5051901;28;20053;-78
2021/04/16 03:40:11;;;;;;;0.22;0.10;;;20.90;35.40;;;;;;5045838;28;20025;-79
2021/04/16 03:42:37;;;;;;;0.22;0.00;;;20.90;35.40;;;;;;5028484;28;20021;-78
2021/04/16 03:45:04;;;;;;;0.20;0.00;;;20.90;35.40;;;;;;5021496;28;20429;-79
2021/04/16 03:47:31;;;;;;;0.10;0.00;;;20.90;35.40;;;;;;5031852;28;20556;-78
2021/04/16 03:49:56;;;;;;;0.10;0.00;;;20.90;35.40;;;;;;5018054;28;20017;-77
2021/04/16 03:52:23;;;;;;;0.00;0.00;;;20.90;35.40;;;;;;5028977;28;20504;-79
2021/04/16 03:54:50;;;;;;;0.08;0.00;;;20.90;35.40;;;;;;5049092;28;20147;-78
2021/04/16 03:57:16;;;;;;;0.55;0.10;;;20.80;35.40;;;;;;5005642;28;20083;-78
2021/04/16 03:59:41;;;;;;;0.35;0.00;;;20.80;35.40;;;;;;5047973;28;20108;-80
2021/04/16 04:02:07;;;;;;;0.15;0.00;;;20.80;35.40;;;;;;5048933;28;20081;-79
2021/04/16 04:04:32;;;;;;;0.10;0.00;;;20.80;35.40;;;;;;5047938;28;20036;-79
2021/04/16 04:06:58;;;;;;;0.25;0.00;;;20.80;35.40;;;;;;5047649;28;20492;-79
2021/04/16 04:09:24;;;;;;;0.30;0.00;;;20.80;35.40;;;;;;5011531;28;20396;-79
2021/04/16 04:11:49;;;;;;;0.85;0.00;;;20.80;35.40;;;;;;5030661;28;20033;-78
2021/04/16 04:14:15;;;;;;;0.17;0.00;;;20.80;35.40;;;;;;5011286;28;20021;-80
2021/04/16 04:17:20;;;;;;;0.10;0.00;;;20.80;35.40;;;;;;5025698;28;20508;-78
2021/04/16 04:19:46;;;;;;;0.20;0.00;;;20.70;35.30;;;;;;5033046;28;20035;-78
2021/04/16 04:22:11;;;;;;;0.32;0.08;;;20.80;35.40;;;;;;5023645;28;20108;-82
2021/04/16 04:24:37;;;;;;;0.32;0.00;;;20.70;35.30;;;;;;5027614;28;20028;-78
2021/04/16 04:27:03;;;;;;;0.10;0.00;;;20.80;35.40;;;;;;5044811;28;20025;-79
2021/04/16 04:29:28;;;;;;;0.10;0.00;;;20.80;35.40;;;;;;5022078;28;20113;-79
2021/04/16 04:31:54;;;;;;;0.30;0.03;;;20.70;35.30;;;;;;5008083;28;20037;-79
2021/04/16 04:34:22;;;;;;;0.63;0.08;;;20.70;35.30;;;;;;5031942;28;20025;-78
2021/04/16 04:36:51;;;;;;;0.20;0.10;;;20.70;35.30;;;;;;5048328;28;20033;-78
2021/04/16 04:39:17;;;;;;;0.10;0.00;;;20.70;35.30;;;;;;5027685;28;20031;-78
2021/04/16 04:41:43;;;;;;;0.25;0.00;;;20.70;35.40;;;;;;5029332;28;20020;-78
2021/04/16 04:44:10;;;;;;;0.20;0.00;;;20.70;35.30;;;;;;5022280;28;20041;-79
2021/04/16 04:46:36;;;;;;;0.30;0.00;;;20.70;35.30;;;;;;5025942;28;20033;-78
2021/04/16 04:49:03;;;;;;;0.20;0.10;;;20.70;35.40;;;;;;5023895;28;20021;-78
2021/04/16 04:51:29;;;;;;;0.38;0.03;;;20.70;35.30;;;;;;5031360;28;20370;-78
2021/04/16 04:53:54;;;;;;;0.13;0.00;;;20.70;35.30;;;;;;5043945;28;20032;-78
2021/04/16 04:56:20;;;;;;;0.28;0.00;;;20.70;35.40;;;;;;5046977;28;20028;-78
2021/04/16 04:58:46;;;;;;;0.20;0.08;;;20.70;35.30;;;;;;5025602;28;20120;-79
2021/04/16 05:01:11;;;;;;;0.00;0.00;;;20.60;35.40;;;;;;5049360;28;20089;-80
2021/04/16 05:03:37;;;;;;;0.25;0.10;;;20.60;35.30;;;;;;5043483;28;20021;-80
2021/04/16 05:06:03;;;;;;;0.22;0.10;;;20.70;35.30;;;;;;5026314;28;20269;-80
2021/04/16 05:08:28;;;;;;;0.13;0.00;;;20.60;35.30;;;;;;5013611;28;20025;-79
2021/04/16 05:10:54;;;;;;;0.30;0.00;;;20.60;35.30;;;;;;5025985;28;20086;-78
2021/04/16 05:13:19;;;;;;;0.22;0.00;;;20.60;35.30;;;;;;5052015;28;20476;-78
2021/04/16 05:15:45;;;;;;;0.40;0.10;;;20.60;35.30;;;;;;5029073;28;20036;-79
2021/04/16 05:18:11;;;;;;;0.20;0.10;;;20.60;35.40;;;;;;5024342;28;20028;-81
2021/04/16 05:20:39;;;;;;;0.15;0.00;;;20.60;35.30;;;;;;5028651;28;20148;-82
2021/04/16 05:23:05;;;;;;;0.38;0.10;;;20.60;35.30;;;;;;5025928;28;20548;-80
2021/04/16 05:25:30;;;;;;;0.20;0.00;;;20.60;35.40;;;;;;5016926;28;20071;-77
2021/04/16 05:27:56;;;;;;;0.08;0.00;;;20.60;35.40;;;;;;5036076;28;20033;-79
2021/04/16 05:30:22;;;;;;;0.38;0.00;;;20.60;35.30;;;;;;5017559;28;20033;-78
2021/04/16 05:32:48;;;;;;;0.20;0.00;;;20.60;35.40;;;;;;5046831;28;20041;-78
2021/04/16 05:35:14;;;;;;;1.23;0.00;;;20.60;35.40;;;;;;5016879;28;20032;-80
2021/04/16 05:37:41;;;;;;;0.20;0.00;;;20.60;35.50;;;;;;5035503;28;20033;-79
2021/04/16 05:40:07;;;;;;;0.20;0.00;;;20.60;35.60;;;;;;5051823;28;20025;-78
2021/04/16 05:42:33;;;;;;;0.30;0.00;;;20.70;35.60;;;;;;5036906;28;20224;-78
2021/04/16 05:45:02;;;;;;;0.38;0.00;;;20.80;35.50;;;;;;5017253;28;20021;-78
2021/04/16 05:47:28;;;;;;;0.77;0.10;;;21.00;35.20;;;;;;5016074;28;20342;-79
2021/04/16 05:49:54;;;;;;;0.10;0.00;;;21.10;34.90;;;;;;5025854;28;20021;-78
2021/04/16 05:52:20;;;;;;;0.50;0.03;;;21.30;34.70;;;;;;5028821;28;20021;-79
2021/04/16 05:54:46;;;;;;;0.13;0.00;;;21.40;34.50;;;;;;5050596;28;20069;-79
2021/04/16 05:57:12;;;;;;;0.45;0.00;;;21.40;34.30;;;;;;5032238;28;20025;-80
2021/04/16 05:59:37;;;;;;;0.47;0.10;;;21.50;34.20;;;;;;5032253;28;20572;-78
2021/04/16 06:02:21;;;;;;;0.80;0.10;;;21.60;34.10;;;;;;5031800;28;20072;-80
2021/04/16 06:04:47;;;;;;;1.23;0.08;;;21.60;33.90;;;;;;5020594;28;20752;-80
2021/04/16 06:07:13;;;;;;;0.47;0.10;;;21.60;33.70;;;;;;5047710;28;20037;-79
2021/04/16 06:09:38;;;;;;;0.57;0.00;;;21.70;33.70;;;;;;5020580;28;20025;-78
2021/04/16 06:12:08;;;;;;;2.30;0.10;;;21.80;33.70;;;;;;5020037;28;20029;-80
2021/04/16 06:14:33;;;;;;;1.13;0.20;;;21.80;33.80;;;;;;5047167;28;20365;-79
2021/04/16 06:16:59;;;;;;;1.38;0.10;;;21.80;33.90;;;;;;5035253;28;20994;-79
2021/04/16 06:19:24;;;;;;;0.40;0.10;;;21.80;33.90;;;;;;5036170;28;20074;-77
2021/04/16 06:21:50;;;;;;;0.20;0.00;;;21.80;33.90;;;;;;5020409;28;20048;-80
2021/04/16 06:24:15;;;;;;;0.20;0.00;;;21.80;34.00;;;;;;5033942;28;20024;-79
2021/04/16 06:26:41;;;;;;;0.20;0.05;;;21.80;34.00;;;;;;5032898;28;20488;-78
2021/04/16 06:29:07;;;;;;;0.17;0.00;;;21.80;34.60;;;;;;5049292;28;20487;-79
2021/04/16 06:31:32;;;;;;;0.43;0.10;;;21.80;34.10;;;;;;5015373;28;20119;-80
2021/04/16 06:33:58;;;;;;;0.75;0.10;;;21.80;34.10;;;;;;5016189;28;20029;-79
2021/04/16 06:36:24;;;;;;;0.45;0.10;;;21.80;34.10;;;;;;5020490;28;20033;-80
2021/04/16 06:38:50;;;;;;;0.75;0.20;;;21.80;34.10;;;;;;5032849;28;20111;-77
2021/04/16 06:41:24;;;;;;;0.52;0.10;;;21.70;34.10;;;;;;5041558;28;20032;-78
2021/04/16 06:43:56;;;;;;;0.95;0.08;;;21.70;34.20;;;;;;5042110;28;20028;-80
2021/04/16 06:46:26;;;;;;;0.75;0.10;;;21.70;34.20;;;;;;5033063;28;20032;-80
2021/04/16 06:48:51;;;;;;;0.40;0.08;;;21.70;34.20;;;;;;5009891;28;20036;-76
2021/04/16 06:51:21;;;;;;;1.95;0.10;;;21.70;34.20;;;;;;5035452;28;20044;-79
2021/04/16 06:54:06;;;;;;;1.05;0.20;;;21.70;34.30;;;;;;5031459;28;20029;-80
2021/04/16 06:56:39;;;;;;;0.90;0.10;;;21.60;34.30;;;;;;5032980;28;20055;-80
2021/04/16 06:59:15;;;;;;;1.45;0.20;;;21.60;34.20;;;;;;5016504;28;20066;-79
2021/04/16 07:01:46;;;;;;;1.15;0.10;;;21.60;34.30;;;;;;5028176;28;20244;-79
2021/04/16 07:04:33;;;;;;;1.58;0.20;;;21.60;34.30;;;;;;5009590;28;20035;-80
2021/04/16 07:07:03;;;;;;;0.85;0.20;;;21.60;34.30;;;;;;5027257;28;20040;-81
2021/04/16 07:09:32;;;;;;;0.68;0.10;;;21.70;34.60;;;;;;5041722;28;20162;-79
2021/04/16 07:12:15;;;;;;;1.90;0.20;;;21.70;34.50;;;;;;5026089;28;20125;-78
2021/04/16 07:14:48;;;;;;;2.58;0.10;;;21.70;34.70;;;;;;5025227;28;20127;-79
2021/04/16 07:17:17;;;;;;;1.00;0.10;;;21.70;34.50;;;;;;5045384;28;20104;-78
2021/04/16 07:19:43;;;;;;;0.70;0.10;;;21.70;34.50;;;;;;5023927;28;20060;-78
2021/04/16 07:22:17;;;;;;;0.50;0.08;;;21.80;34.60;;;;;;5029115;28;20056;-81
2021/04/16 07:24:45;;;;;;;2.80;0.25;;;21.80;34.80;;;;;;5043826;28;20212;-82
2021/04/16 07:27:21;;;;;;;0.43;0.10;;;21.70;34.90;;;;;;5008644;28;20520;-80
2021/04/16 07:29:52;;;;;;;1.02;0.10;;;21.70;35.10;;;;;;5025905;28;20045;-80
2021/04/16 07:32:29;;;;;;;0.68;0.10;;;21.70;35.30;;;;;;5039079;28;20037;-80
2021/04/16 07:34:58;;;;;;;0.60;0.15;;;21.70;35.30;;;;;;5025471;28;20104;-79
2021/04/16 07:37:41;;;;;;;0.65;0.10;;;21.70;35.00;;;;;;5022744;28;20033;-79
2021/04/16 07:40:22;;;;;;;2.28;0.10;;;21.70;35.20;;;;;;5040249;28;20021;-79
2021/04/16 07:42:49;;;;;;;1.77;0.10;;;21.80;35.60;;;;;;5030224;28;20081;-80
2021/04/16 07:45:20;;;;;;;0.55;0.10;;;21.70;35.10;;;;;;5028479;28;20436;-80
2021/04/16 07:47:47;;;;;;;2.72;0.10;;;21.80;35.30;;;;;;5048284;28;20082;-78
2021/04/16 07:50:31;;;;;;;0.73;0.10;;;21.80;35.20;;;;;;5029303;28;20021;-79
2021/04/16 07:52:58;;;;;;;1.17;0.28;;;21.80;35.20;;;;;;5048526;28;20028;-78
2021/04/16 07:55:29;;;;;;;3.00;0.20;;;21.90;35.50;;;;;;5029787;28;20028;-81
2021/04/16 07:58:13;;;;;;;2.55;0.20;;;21.90;35.40;;;;;;5017245;28;20017;-79
2021/04/16 08:00:41;;;;;;;1.23;0.20;;;21.90;35.70;;;;;;5042456;28;20029;-78
2021/04/16 08:03:20;;;;;;;1.98;0.20;;;22.00;35.60;;;;;;5040034;28;20021;-78
2021/04/16 08:05:54;;;;;;;2.38;0.22;;;21.90;35.50;;;;;;5023640;28;20016;-77
2021/04/16 08:08:32;;;;;;;2.90;0.38;;;21.90;35.50;;;;;;5026476;28;20059;-78
2021/04/16 08:11:00;;;;;;;2.00;0.40;;;21.90;35.70;;;;;;5044268;28;20552;-78
2021/04/16 08:13:30;;;;;;;0.95;0.28;;;21.90;35.60;;;;;;5042467;28;20037;-80
2021/04/16 08:16:31;;;;;;;0.75;0.20;;;21.90;35.90;;;;;;5010747;28;20028;-80
2021/04/16 08:18:57;;;;;;;1.27;0.30;;;22.00;35.70;;;;;;5026879;28;20111;-80
2021/04/16 08:21:25;;;;;;;0.80;0.30;;;22.00;35.80;;;;;;5026875;28;20121;-80
2021/04/16 08:23:55;;;;;;;1.40;0.40;;;22.00;36.20;;;;;;5049211;28;20078;-79
2021/04/16 08:26:25;;;;;;;0.90;0.43;;;22.00;36.30;;;;;;5030988;28;20048;-79
2021/04/16 08:29:24;;;;;;;1.40;0.47;;;22.00;36.50;;;;;;5049589;28;20041;-77
2021/04/16 08:32:01;;;;;;;1.58;0.50;;;22.00;36.50;;;;;;5025836;28;20730;-76
2021/04/16 08:35:12;;;;;;;1.10;0.40;;;22.00;36.60;;;;;;5046579;28;20051;-77
2021/04/16 08:37:48;;;;;;;3.30;0.43;;;22.00;36.20;;;;;;5032472;28;20113;-79
2021/04/16 08:40:29;;;;;;;1.83;0.43;;;22.00;37.10;;;;;;5013223;28;20036;-79
2021/04/16 08:42:57;;;;;;;2.88;0.70;;;22.00;37.10;;;;;;5028679;28;20127;-81
2021/04/16 08:45:26;;;;;;;1.58;0.47;;;21.90;36.90;;;;;;5029244;28;20036;-78
2021/04/16 08:48:10;;;;;;;1.17;0.75;;;21.90;36.60;;;;;;5028325;28;20451;-77
2021/04/16 08:50:44;;;;;;;0.93;0.50;;;22.00;36.40;;;;;;5043897;28;20125;-78
2021/04/16 08:53:10;;;;;;;0.80;0.50;;;22.00;36.80;;;;;;5049668;28;20389;-78
2021/04/16 08:55:45;;;;;;;1.27;0.70;;;22.00;36.80;;;;;;5049939;28;20035;-77
2021/04/16 08:58:35;;;;;;;2.22;0.73;;;22.10;37.00;;;;;;5046378;28;20171;-78
2021/04/16 09:01:07;;;;;;;1.45;1.02;;;22.10;37.40;;;;;;5034009;28;20442;-78
2021/04/16 09:03:39;;;;;;;;;;;22.10;37.30;;;;;;5031792;28;20029;-77
2021/04/16 09:06:06;;;;;;;1.08;0.77;;;22.00;36.50;;;;;;5032616;28;20038;-77
2021/04/16 09:08:48;;;;;;;1.27;1.08;;;22.00;36.40;;;;;;5032080;28;20060;-79
2021/04/16 09:11:33;;;;;;;;;;;22.10;36.40;;;;;;5046386;28;20036;-78
2021/04/16 09:13:59;;;;;;;4.43;1.25;;;22.10;36.20;;;;;;5026490;28;19913;-78
2021/04/16 09:16:56;;;;;;;1.63;0.95;;;22.10;36.50;;;;;;5028667;28;20389;-77
2021/04/16 09:19:25;;;;;;;6.28;1.30;;;22.10;36.60;;;;;;5045369;28;20546;-78
2021/04/16 09:22:03;;;;;;;3.17;1.20;;;22.10;36.10;;;;;;5043488;28;20032;-77
2021/04/16 09:24:45;;;;;;;1.27;0.88;;;22.10;36.70;;;;;;5031306;28;20057;-78
2021/04/16 09:27:26;;;;;;;1.67;1.30;;;22.00;37.00;;;;;;5043411;28;20036;-78
2021/04/16 09:30:19;;;;;;;1.33;1.05;;;22.10;36.80;;;;;;5009726;28;20060;-79
2021/04/16 09:32:55;;;;;;;1.20;0.95;;;22.10;37.30;;;;;;5021969;28;20041;-78
2021/04/16 09:35:27;;;;;;;3.08;1.17;;;22.10;36.20;;;;;;5026498;28;20040;-77
2021/04/16 09:38:12;;;;;;;;;;;22.10;37.30;;;;;;5011987;28;20017;-77
2021/04/16 09:40:38;;;;;;;1.70;0.80;;;22.10;37.30;;;;;;5009945;28;20341;-77
2021/04/16 09:43:10;;;;;;;2.53;1.33;;;22.20;37.70;;;;;;5015899;28;20037;-77
2021/04/16 09:45:46;;;;;;;1.85;0.95;;;22.20;37.80;;;;;;5050653;28;20036;-78
2021/04/16 09:48:17;;;;;;;1.00;0.90;;;22.20;37.80;;;;;;5032552;28;20037;-77
2021/04/16 09:50:47;;;;;;;4.40;0.90;;;22.20;36.60;;;;;;5009241;28;20060;-78
2021/04/16 09:53:34;;;;;;;3.05;0.60;;;22.20;36.90;;;;;;5047350;28;20025;-78
2021/04/16 09:56:00;;;;;;;1.58;1.00;;;22.20;36.20;;;;;;5028980;28;20064;-78
2021/04/16 09:58:32;;;;;;;1.58;0.98;;;22.30;36.20;;;;;;5034189;28;20032;-78
2021/04/16 10:01:01;;;;;;;2.10;0.80;;;22.20;38.20;;;;;;5031368;28;20115;-77
2021/04/16 10:03:32;;;;;;;2.03;0.95;;;22.20;38.50;;;;;;5013853;28;20776;-78
2021/04/16 10:05:59;;;;;;;1.95;0.68;;;22.20;36.40;;;;;;5031746;28;20040;-78
2021/04/16 10:08:29;;;;;;;1.92;0.85;;;22.20;36.40;;;;;;5015588;28;20029;-77
2021/04/16 10:11:04;;;;;;;1.45;0.70;;;22.20;37.20;;;;;;5048805;28;20105;-80
2021/04/16 10:13:36;;;;;;;1.10;0.70;;;22.30;37.10;;;;;;5016895;28;20620;-79
2021/04/16 10:16:17;;;;;;;1.15;0.60;;;22.30;37.00;;;;;;5047749;28;20083;-79
2021/04/16 10:18:43;;;;;;;1.88;0.63;;;22.40;36.80;;;;;;5028996;28;20031;-78
2021/04/16 10:21:24;;;;;;;2.70;0.60;;;22.30;37.40;;;;;;5022698;28;20065;-77
2021/04/16 11:30:47;;;;;;;1.55;0.30;;;22.70;36.40;;;;;;5050425;28;20026;-78
2021/04/16 12:41:47;;;;;;;0.77;0.30;;;22.90;39.70;;;;;;5033247;28;20059;-77
2021/04/16 12:44:28;;;;;;;1.52;0.20;;;22.90;39.80;;;;;;5053781;28;20029;-78
2021/04/16 12:46:59;;;;;;;1.20;0.45;;;22.90;39.50;;;;;;5034594;28;20033;-77
2021/04/16 12:49:26;;;;;;;0.93;0.23;;;22.90;39.20;;;;;;5023174;28;20037;-78
2021/04/16 12:51:53;;;;;;;2.15;0.28;;;22.90;39.00;;;;;;5051435;28;20029;-78
2021/04/16 12:54:18;;;;;;;0.60;0.30;;;22.80;38.90;;;;;;5022267;28;20056;-82
2021/04/16 12:56:44;;;;;;;2.00;0.30;;;22.80;38.70;;;;;;5017871;28;20036;-80
2021/04/16 12:59:16;;;;;;;0.70;0.30;;;22.80;38.50;;;;;;5017396;28;20033;-80
2021/04/16 13:01:44;;;;;;;1.25;0.38;;;22.80;38.40;;;;;;5054055;28;20021;-81
2021/04/16 13:04:10;;;;;;;1.33;0.22;;;22.80;38.30;;;;;;5016879;28;20469;-81
2021/04/16 13:06:42;;;;;;;1.65;0.30;;;22.80;38.30;;;;;;5026114;28;20044;-79
2021/04/16 13:09:09;;;;;;;;;;;22.80;38.10;;;;;;5048607;28;20040;-82
2021/04/16 13:11:34;;;;;;;1.27;0.40;;;22.80;38.00;;;;;;5033215;28;19913;-78
2021/04/16 13:14:00;;;;;;;0.90;0.32;;;22.80;38.00;;;;;;5019628;28;20203;-79
2021/04/16 13:16:26;;;;;;;1.20;0.43;;;22.80;37.90;;;;;;5050091;28;20036;-79
2021/04/16 13:18:54;;;;;;;1.23;0.43;;;22.80;37.90;;;;;;5030406;28;20036;-78
2021/04/16 13:21:41;;;;;;;2.45;0.40;;;22.80;37.80;;;;;;5032067;28;20045;-79
2021/04/16 13:24:10;;;;;;;4.43;0.32;;;22.80;37.70;;;;;;5015814;28;20033;-77
2021/04/16 13:26:36;;;;;;;2.67;0.38;;;22.80;37.70;;;;;;5031462;28;20430;-82
2021/04/16 13:29:03;;;;;;;2.60;0.73;;;22.80;37.60;;;;;;5015949;28;20108;-82
2021/04/16 13:31:32;;;;;;;0.95;0.40;;;22.80;37.50;;;;;;5029088;28;20122;-82
2021/04/16 13:33:59;;;;;;;2.25;0.40;;;22.80;37.40;;;;;;5044447;28;20132;-81
2021/04/16 13:36:30;;;;;;;3.25;0.63;;;22.90;37.00;;;;;;5030103;28;20022;-78
2021/04/16 13:38:56;;;;;;;2.63;0.73;;;23.00;36.30;;;;;;5026727;28;20090;-78
2021/04/16 13:41:22;;;;;;;2.08;0.40;;;23.00;36.00;;;;;;5043682;28;20731;-78
2021/04/16 13:43:52;;;;;;;3.22;0.68;;;23.00;36.00;;;;;;5045394;28;20056;-77
2021/04/16 13:46:21;;;;;;;2.00;0.52;;;23.00;36.20;;;;;;5046152;28;20493;-77
2021/04/16 13:48:48;;;;;;;1.98;0.60;;;23.10;36.40;;;;;;5046874;28;20600;-79
2021/04/16 13:51:15;;;;;;;2.58;0.80;;;23.10;36.40;;;;;;5011371;28;20048;-80
2021/04/16 13:53:41;;;;;;;2.65;0.88;;;23.10;36.20;;;;;;5033129;28;20036;-80
2021/04/16 13:56:07;;;;;;;2.65;0.57;;;23.10;36.00;;;;;;5029600;28;20025;-81
2021/04/16 13:58:33;;;;;;;3.22;0.68;;;23.10;35.80;;;;;;5031040;28;20029;-79
2021/04/16 14:00:58;;;;;;;2.72;0.80;;;23.10;36.30;;;;;;5032387;28;20029;-79
2021/04/16 14:03:36;;;;;;;1.08;0.60;;;23.10;36.80;;;;;;5017402;28;20021;-80
2021/04/16 14:06:06;;;;;;;1.60;0.40;;;23.10;36.60;;;;;;5048955;28;20064;-78
2021/04/16 14:08:39;;;;;;;1.23;0.47;;;23.10;36.00;;;;;;5048680;28;20047;-81
2021/04/16 14:11:06;;;;;;;3.78;0.80;;;23.20;35.90;;;;;;5033882;28;20044;-80
2021/04/16 14:13:33;;;;;;;1.90;0.52;;;23.20;35.90;;;;;;5016075;28;20275;-81
2021/04/16 14:16:05;;;;;;;2.53;0.70;;;23.20;36.00;;;;;;5030060;28;20252;-81
2021/04/16 14:18:43;;;;;;;2.45;0.68;;;23.10;38.60;;;;;;5030791;28;20044;-79
2021/04/16 14:21:13;;;;;;;4.25;0.82;;;23.10;38.40;;;;;;5031976;28;20312;-80
2021/04/16 14:23:39;;;;;;;2.60;0.93;;;23.10;38.50;;;;;;5010479;28;20021;-81
2021/04/16 14:26:05;;;;;;;3.08;0.93;;;23.10;38.60;;;;;;5029013;28;20029;-80
2021/04/16 14:28:31;;;;;;;1.35;0.93;;;23.20;38.70;;;;;;5012336;28;20033;-81
2021/04/16 14:30:57;;;;;;;1.25;0.88;;;23.20;38.70;;;;;;5027514;28;20131;-81
2021/04/16 14:33:26;;;;;;;2.67;1.52;;;23.20;38.70;;;;;;5009951;28;20033;-81
2021/04/16 14:35:52;;;;;;;1.92;1.42;;;23.20;38.80;;;;;;5026000;28;20036;-84
2021/04/16 14:38:18;;;;;;;3.60;1.20;;;23.20;38.70;;;;;;5046985;28;20036;-81
2021/04/16 14:40:44;;;;;;;2.65;1.70;;;23.30;39.00;;;;;;5015508;28;20037;-81
2021/04/16 14:43:11;;;;;;;2.65;1.05;;;23.30;37.10;;;;;;5009126;28;20040;-81
2021/04/16 14:45:49;;;;;;;2.63;1.10;;;23.30;38.70;;;;;;5017569;28;20028;-81
2021/04/16 14:48:16;;;;;;;2.88;1.20;;;23.30;38.90;;;;;;5021524;28;20028;-81
2021/04/16 14:50:43;;;;;;;5.68;0.93;;;23.20;38.70;;;;;;5047747;28;20037;-81
2021/04/16 14:53:27;;;;;;;4.13;0.95;;;23.20;38.50;;;;;;5032067;28;20096;-81
2021/04/16 14:55:53;;;;;;;1.33;0.90;;;23.10;38.30;;;;;;5018859;28;20066;-81
2021/04/16 14:58:29;;;;;;;4.03;1.00;;;23.10;38.20;;;;;;5030597;28;20545;-81
2021/04/16 15:00:55;;;;;;;1.73;0.98;;;23.10;38.20;;;;;;5033502;28;20102;-81
2021/04/16 15:03:21;;;;;;;2.97;1.15;;;23.10;38.10;;;;;;5034072;28;20036;-81
2021/04/16 15:05:46;;;;;;;1.38;0.70;;;23.10;38.00;;;;;;5031799;28;20033;-81
2021/04/16 15:08:18;;;;;;;2.25;1.13;;;23.00;37.90;;;;;;5011641;28;20035;-81
2021/04/16 15:10:48;;;;;;;1.30;0.70;;;23.10;37.90;;;;;;5028738;28;20140;-81
2021/04/16 15:13:21;;;;;;;1.23;0.63;;;23.00;37.70;;;;;;5029343;28;20444;-81
2021/04/16 15:15:47;;;;;;;2.10;0.95;;;23.10;37.80;;;;;;5030864;28;20039;-81